createdAt,value
2023-04-24T00:01:33.183Z,99753.00
2023-04-24T00:04:00.891Z,99743.00
2023-04-24T00:06:34.227Z,99746.00
2023-04-24T00:09:02.400Z,99750.00
2023-04-24T00:11:31.014Z,99743.00
2023-04-24T00:13:58.808Z,99752.00
2023-04-24T00:16:26.208Z,99750.00
2023-04-24T00:18:57.268Z,99758.00
2023-04-24T00:21:26.926Z,99761.00
2023-04-24T00:23:54.946Z,99763.00
2023-04-24T00:26:22.293Z,99758.00
2023-04-24T00:28:49.749Z,99763.00
2023-04-24T00:31:20.361Z,99750.00
2023-04-24T00:33:47.818Z,99759.00
2023-04-24T00:36:14.932Z,99768.00
2023-04-24T00:38:42.140Z,99774.00
2023-04-24T00:41:09.489Z,99768.00
2023-04-24T00:43:36.914Z,99759.00
2023-04-24T00:46:04.799Z,99768.00
2023-04-24T00:48:33.479Z,99763.00
2023-04-24T00:51:00.621Z,99749.00
2023-04-24T00:53:27.987Z,99758.00
2023-04-24T00:55:55.661Z,99740.00
2023-04-24T00:58:23.575Z,99760.00
2023-04-24T01:00:54.258Z,99750.00
2023-04-24T01:03:27.576Z,99759.00
2023-04-24T01:05:59.595Z,99754.00
2023-04-24T01:08:29.570Z,99756.00
2023-04-24T01:10:58.454Z,99755.00
2023-04-24T01:13:25.962Z,99757.00
2023-04-24T01:15:53.443Z,99756.00
2023-04-24T01:18:24.090Z,99767.00
2023-04-24T01:20:55.313Z,99755.00
2023-04-24T01:23:22.509Z,99754.00
2023-04-24T01:25:51.539Z,99757.00
2023-04-24T01:28:38.360Z,99758.00
2023-04-24T01:31:06.229Z,99753.00
2023-04-24T01:33:34.328Z,99750.00
2023-04-24T01:36:02.133Z,99740.00
2023-04-24T01:38:29.545Z,99755.00
2023-04-24T01:40:57.006Z,99746.00
2023-04-24T01:43:25.330Z,99762.00
2023-04-24T01:45:52.705Z,99758.00
2023-04-24T01:48:20.104Z,99759.00
2023-04-24T01:50:47.986Z,99752.00
2023-04-24T01:53:15.365Z,99743.00
2023-04-24T01:55:43.057Z,99731.00
2023-04-24T01:58:10.552Z,99749.00
2023-04-24T02:00:38.121Z,99745.00
2023-04-24T02:03:05.557Z,99742.00
2023-04-24T02:05:32.895Z,99750.00
2023-04-24T02:08:00.406Z,99747.00
2023-04-24T02:10:28.006Z,99745.00
2023-04-24T02:12:55.199Z,99747.00
2023-04-24T02:15:22.551Z,99744.00
2023-04-24T02:17:49.811Z,99734.00
2023-04-24T02:20:17.396Z,99753.00
2023-04-24T02:22:44.643Z,99759.00
2023-04-24T02:25:11.886Z,99761.00
2023-04-24T02:27:39.144Z,99739.00
2023-04-24T02:30:07.622Z,99741.00
2023-04-24T02:32:35.178Z,99754.00
2023-04-24T02:35:39.937Z,99756.00
2023-04-24T02:38:07.224Z,99746.00
2023-04-24T02:40:34.756Z,99754.00
2023-04-24T02:43:02.034Z,99751.00
2023-04-24T02:45:29.588Z,99752.00
2023-04-24T02:47:57.124Z,99759.00
2023-04-24T02:50:24.549Z,99757.00
2023-04-24T02:52:51.942Z,99747.00
2023-04-24T02:55:19.417Z,99740.00
2023-04-24T02:57:46.850Z,99743.00
2023-04-24T03:00:14.530Z,99751.00
2023-04-24T03:02:41.923Z,99751.00
2023-04-24T03:05:10.187Z,99758.00
2023-04-24T03:07:38.129Z,99755.00
2023-04-24T03:10:06.922Z,99753.00
2023-04-24T03:12:34.151Z,99758.00
2023-04-24T03:15:01.811Z,99756.00
2023-04-24T03:17:31.725Z,99761.00
2023-04-24T03:19:59.115Z,99757.00
2023-04-24T03:22:26.465Z,99753.00
2023-04-24T03:24:53.675Z,99756.00
2023-04-24T03:27:21.112Z,99773.00
2023-04-24T03:29:48.585Z,99762.00
2023-04-24T03:32:15.906Z,99769.00
2023-04-24T03:34:43.104Z,99761.00
2023-04-24T03:37:10.503Z,99760.00
2023-04-24T03:39:37.879Z,99757.00
2023-04-24T03:42:05.276Z,99748.00
2023-04-24T03:44:32.595Z,99751.00
2023-04-24T03:47:00.387Z,99764.00
2023-04-24T03:49:27.834Z,99757.00
2023-04-24T03:51:55.335Z,99769.00
2023-04-24T03:54:22.670Z,99757.00
2023-04-24T03:56:50.332Z,99761.00
2023-04-24T03:59:17.524Z,99765.00
2023-04-24T04:01:44.887Z,99770.00
2023-04-24T04:04:12.641Z,99763.00
2023-04-24T04:06:43.800Z,99774.00
2023-04-24T04:09:12.105Z,99763.00
2023-04-24T04:11:39.627Z,99779.00
2023-04-24T04:14:07.338Z,99778.00
2023-04-24T04:16:34.691Z,99765.00
2023-04-24T04:19:03.293Z,99780.00
2023-04-24T04:21:32.428Z,99761.00
2023-04-24T04:23:59.971Z,99787.00
2023-04-24T04:26:27.330Z,99783.00
2023-04-24T04:28:54.707Z,99784.00
2023-04-24T04:31:22.990Z,99785.00
2023-04-24T04:33:50.243Z,99790.00
2023-04-24T04:36:18.604Z,99788.00
2023-04-24T04:38:45.944Z,99795.00
2023-04-24T04:41:13.302Z,99782.00
2023-04-24T04:43:41.890Z,99799.00
2023-04-24T04:46:09.668Z,99785.00
2023-04-24T04:48:36.998Z,99791.00
2023-04-24T04:51:04.229Z,99798.00
2023-04-24T04:53:31.588Z,99789.00
2023-04-24T04:55:59.243Z,99788.00
2023-04-24T04:58:26.614Z,99784.00
2023-04-24T05:00:54.250Z,99779.00
2023-04-24T05:03:23.669Z,99789.00
2023-04-24T05:05:51.036Z,99794.00
2023-04-24T05:08:26.239Z,99795.00
2023-04-24T05:10:54.446Z,99798.00
2023-04-24T05:13:28.400Z,99785.00
2023-04-24T05:16:03.545Z,99794.00
2023-04-24T05:18:31.568Z,99787.00
2023-04-24T05:20:58.923Z,99796.00
2023-04-24T05:23:26.498Z,99786.00
2023-04-24T05:25:54.072Z,99801.00
2023-04-24T05:28:22.242Z,99788.00
2023-04-24T05:30:49.494Z,99794.00
2023-04-24T05:33:16.732Z,99805.00
2023-04-24T05:35:47.999Z,99798.00
2023-04-24T05:38:18.734Z,99797.00
2023-04-24T05:40:46.365Z,99810.00
2023-04-24T05:51:33.911Z,99819.00
2023-04-24T05:54:03.725Z,99812.00
2023-04-24T05:56:31.944Z,99808.00
2023-04-24T05:58:59.200Z,99798.00
2023-04-24T06:01:45.975Z,99821.00
2023-04-24T06:04:15.305Z,99821.00
2023-04-24T06:10:59.451Z,99813.00
2023-04-24T06:17:45.634Z,99820.00
2023-04-24T06:20:13.596Z,99839.00
2023-04-24T06:22:41.328Z,99832.00
2023-04-24T06:25:09.466Z,99831.00
2023-04-24T06:27:36.908Z,99837.00
2023-04-24T06:30:05.320Z,99835.00
2023-04-24T06:32:33.841Z,99834.00
2023-04-24T06:35:01.475Z,99850.00
2023-04-24T06:37:30.899Z,99837.00
2023-04-24T06:42:39.366Z,99837.00
2023-04-24T06:45:18.327Z,99840.00
2023-04-24T06:50:59.988Z,99831.00
2023-04-24T06:53:41.207Z,99839.00
2023-04-24T06:56:52.708Z,99836.00
2023-04-24T06:59:31.988Z,99841.00
2023-04-24T07:01:59.421Z,99848.00
2023-04-24T07:07:18.421Z,99853.00
2023-04-24T07:09:53.634Z,99864.00
2023-04-24T07:15:58.082Z,99886.00
2023-04-24T07:21:29.757Z,99890.00
2023-04-24T07:24:44.354Z,99894.00
2023-04-24T07:27:12.906Z,99896.00
2023-04-24T07:29:58.465Z,99898.00
2023-04-24T07:32:35.722Z,99886.00
2023-04-24T07:35:07.025Z,99904.00
2023-04-24T07:37:51.976Z,99912.00
2023-04-24T07:40:23.152Z,99909.00
2023-04-24T07:43:05.774Z,99928.00
2023-04-24T07:45:38.724Z,99911.00
2023-04-24T07:48:28.822Z,99919.00
2023-04-24T07:51:07.798Z,99942.00
2023-04-24T07:53:56.724Z,99942.00
2023-04-24T07:56:28.474Z,99948.00
2023-04-24T08:04:46.941Z,99964.00
2023-04-24T08:07:25.144Z,99978.00
2023-04-24T08:09:58.033Z,99991.00
2023-04-24T08:13:02.756Z,100013.00
2023-04-24T08:15:33.766Z,100010.00
2023-04-24T08:18:01.077Z,100018.00
2023-04-24T08:20:28.649Z,100050.00
2023-04-24T08:22:56.438Z,100054.00
2023-04-24T08:25:26.343Z,100050.00
2023-04-24T08:27:56.712Z,100080.00
2023-04-24T08:30:27.908Z,100088.00
2023-04-24T08:33:01.248Z,100092.00
2023-04-24T08:35:28.939Z,100095.00
2023-04-24T08:37:59.963Z,100096.00
2023-04-24T08:40:37.549Z,100108.00
2023-04-24T08:43:08.302Z,100114.00
2023-04-24T08:45:36.350Z,100123.00
2023-04-24T08:48:16.593Z,100117.00
2023-04-24T08:50:54.681Z,100140.00
2023-04-24T08:53:22.571Z,100142.00
2023-04-24T08:55:57.618Z,100139.00
2023-04-24T08:58:28.205Z,100151.00
2023-04-24T09:01:02.045Z,100165.00
2023-04-24T09:03:31.673Z,100171.00
2023-04-24T09:06:02.455Z,100174.00
2023-04-24T09:08:38.038Z,100172.00
2023-04-24T09:11:12.655Z,100199.00
2023-04-24T09:13:40.812Z,100182.00
2023-04-24T09:16:11.208Z,100190.00
2023-04-24T09:18:38.943Z,100199.00
2023-04-24T09:21:10.608Z,100199.00
2023-04-24T09:23:37.997Z,100206.00
2023-04-24T09:26:08.848Z,100204.00
2023-04-24T09:28:42.042Z,100205.00
2023-04-24T09:31:19.759Z,100224.00
2023-04-24T09:34:01.832Z,100219.00
2023-04-24T09:36:39.437Z,100229.00
2023-04-24T09:39:12.339Z,100237.00
2023-04-24T09:41:58.659Z,100238.00
2023-04-24T09:44:30.346Z,100248.00
2023-04-24T09:47:05.115Z,100248.00
2023-04-24T09:49:38.353Z,100246.00
2023-04-24T09:52:13.731Z,100250.00
2023-04-24T09:54:41.970Z,100271.00
2023-04-24T09:57:10.437Z,100270.00
2023-04-24T09:59:50.263Z,100264.00
2023-04-24T10:02:28.828Z,100263.00
2023-04-24T10:05:01.982Z,100278.00
2023-04-24T10:07:34.163Z,100274.00
2023-04-24T10:10:02.623Z,100283.00
2023-04-24T10:12:31.641Z,100287.00
2023-04-24T10:15:01.424Z,100300.00
2023-04-24T10:17:30.178Z,100297.00
2023-04-24T10:20:01.139Z,100308.00
2023-04-24T10:22:31.057Z,100288.00
2023-04-24T10:25:00.555Z,100305.00
2023-04-24T10:27:29.685Z,100287.00
2023-04-24T10:29:57.770Z,100291.00
2023-04-24T10:32:25.251Z,100293.00
2023-04-24T10:35:14.184Z,100311.00
2023-04-24T10:37:55.945Z,100309.00
2023-04-24T10:40:34.455Z,100309.00
2023-04-24T10:43:09.585Z,100338.00
2023-04-24T10:49:49.859Z,100339.00
2023-04-24T10:52:18.014Z,100342.00
2023-04-24T10:54:50.564Z,100335.00
2023-04-24T10:57:20.929Z,100338.00
2023-04-24T10:59:53.185Z,100319.00
2023-04-24T11:02:41.710Z,100344.00
2023-04-24T11:05:09.497Z,100342.00
2023-04-24T11:08:14.927Z,100347.00
2023-04-24T11:10:47.550Z,100339.00
2023-04-24T11:17:44.254Z,100353.00
2023-04-24T11:20:27.249Z,100357.00
2023-04-24T11:22:58.772Z,100359.00
2023-04-24T11:25:26.334Z,100368.00
2023-04-24T11:28:05.712Z,100378.00
2023-04-24T11:30:37.567Z,100378.00
2023-04-24T11:33:09.612Z,100377.00
2023-04-24T11:35:41.864Z,100395.00
2023-04-24T11:40:41.789Z,100392.00
2023-04-24T11:43:10.821Z,100404.00
2023-04-24T11:45:38.407Z,100397.00
2023-04-24T11:48:05.857Z,100412.00
2023-04-24T11:50:33.428Z,100410.00
2023-04-24T11:53:03.144Z,100416.00
2023-04-24T11:55:31.454Z,100423.00
2023-04-24T11:58:01.156Z,100415.00
2023-04-24T12:00:31.666Z,100428.00
2023-04-24T12:03:14.712Z,100442.00
2023-04-24T12:05:42.676Z,100427.00
2023-04-24T12:08:10.947Z,100433.00
2023-04-24T12:10:38.855Z,100459.00
2023-04-24T12:13:27.053Z,100462.00
2023-04-24T12:15:54.909Z,100452.00
2023-04-24T12:18:26.006Z,100466.00
2023-04-24T12:20:53.264Z,100455.00
2023-04-24T12:23:51.866Z,100469.00
2023-04-24T12:26:23.812Z,100469.00
2023-04-24T12:28:51.465Z,100466.00
2023-04-24T12:31:19.295Z,100455.00
2023-04-24T12:33:46.999Z,100477.00
2023-04-24T12:36:15.121Z,100476.00
2023-04-24T12:38:47.700Z,100469.00
2023-04-24T12:41:16.136Z,100462.00
2023-04-24T12:43:55.220Z,100474.00
2023-04-24T12:46:22.782Z,100474.00
2023-04-24T12:48:50.438Z,100472.00
2023-04-24T12:51:17.855Z,100476.00
2023-04-24T12:53:46.281Z,100471.00
2023-04-24T12:56:13.531Z,100478.00
2023-04-24T12:58:41.122Z,100476.00
2023-04-24T13:01:08.557Z,100480.00
2023-04-24T13:03:36.874Z,100477.00
2023-04-24T13:06:04.307Z,100481.00
2023-04-24T13:08:34.344Z,100470.00
2023-04-24T13:11:01.949Z,100478.00
2023-04-24T13:13:29.136Z,100474.00
2023-04-24T13:15:56.355Z,100483.00
2023-04-24T13:18:24.270Z,100487.00
2023-04-24T13:20:52.285Z,100485.00
2023-04-24T13:23:20.391Z,100489.00
2023-04-24T13:25:48.649Z,100499.00
2023-04-24T13:28:16.253Z,100501.00
2023-04-24T13:30:48.981Z,100493.00
2023-04-24T13:33:17.186Z,100505.00
2023-04-24T13:35:47.350Z,100490.00
2023-04-24T13:38:14.799Z,100508.00
2023-04-24T13:40:42.548Z,100497.00
2023-04-24T13:43:10.402Z,100498.00
2023-04-24T13:45:40.108Z,100490.00
2023-04-24T13:48:07.792Z,100497.00
2023-04-24T13:50:54.046Z,100495.00
2023-04-24T13:53:21.481Z,100487.00
2023-04-24T13:55:49.447Z,100512.00
2023-04-24T13:58:17.152Z,100505.00
2023-04-24T14:00:44.932Z,100519.00
2023-04-24T14:03:12.855Z,100519.00
2023-04-24T14:05:40.479Z,100495.00
2023-04-24T14:08:07.829Z,100512.00
2023-04-24T14:10:35.290Z,100523.00
2023-04-24T14:13:03.061Z,100517.00
2023-04-24T14:15:31.124Z,100516.00
2023-04-24T14:17:59.646Z,100526.00
2023-04-24T14:20:27.253Z,100510.00
2023-04-24T14:22:54.721Z,100521.00
2023-04-24T14:25:23.783Z,100511.00
2023-04-24T14:27:51.324Z,100514.00
2023-04-24T14:30:19.840Z,100531.00
2023-04-24T14:33:08.062Z,100518.00
2023-04-24T14:36:06.841Z,100522.00
2023-04-24T14:38:34.295Z,100533.00
2023-04-24T14:43:33.771Z,100524.00
2023-04-24T14:46:01.429Z,100526.00
2023-04-24T14:48:28.680Z,100530.00
2023-04-24T14:50:55.969Z,100521.00
2023-04-24T14:53:23.208Z,100518.00
2023-04-24T14:55:50.647Z,100523.00
2023-04-24T14:58:17.874Z,100535.00
2023-04-24T15:00:45.379Z,100535.00
2023-04-24T15:03:12.889Z,100524.00
2023-04-24T15:05:40.598Z,100544.00
2023-04-24T15:08:10.233Z,100537.00
2023-04-24T15:10:40.665Z,100542.00
2023-04-24T15:13:08.944Z,100545.00
2023-04-24T15:15:36.341Z,100542.00
2023-04-24T15:18:04.167Z,100546.00
2023-04-24T15:20:31.328Z,100553.00
2023-04-24T15:23:00.947Z,100550.00
2023-04-24T15:25:29.359Z,100550.00
2023-04-24T15:27:56.589Z,100556.00
2023-04-24T15:30:23.897Z,100548.00
2023-04-24T15:32:51.273Z,100553.00
2023-04-24T15:35:18.896Z,100550.00
2023-04-24T15:37:46.579Z,100559.00
2023-04-24T15:40:16.920Z,100560.00
2023-04-24T15:42:46.972Z,100559.00
2023-04-24T15:45:14.762Z,100555.00
2023-04-24T15:47:42.129Z,100546.00
2023-04-24T15:50:12.752Z,100533.00
2023-04-24T15:52:41.373Z,100556.00
2023-04-24T15:55:08.965Z,100554.00
2023-04-24T15:58:15.194Z,100560.00
2023-04-24T16:00:45.561Z,100553.00
2023-04-24T16:03:17.800Z,100550.00
2023-04-24T16:05:45.625Z,100546.00
2023-04-24T16:08:15.572Z,100553.00
2023-04-24T16:10:43.690Z,100543.00
2023-04-24T16:13:10.958Z,100553.00
2023-04-24T16:15:39.122Z,100556.00
2023-04-24T16:18:06.862Z,100557.00
2023-04-24T16:20:34.368Z,100550.00
2023-04-24T16:23:01.791Z,100555.00
2023-04-24T16:25:28.885Z,100559.00
2023-04-24T16:27:57.223Z,100560.00
2023-04-24T16:30:27.891Z,100575.00
2023-04-24T16:32:58.220Z,100579.00
2023-04-24T16:35:25.574Z,100575.00
2023-04-24T16:37:52.897Z,100587.00
2023-04-24T16:40:21.425Z,100581.00
2023-04-24T16:42:49.113Z,100594.00
2023-04-24T16:45:18.006Z,100597.00
2023-04-24T16:47:45.415Z,100582.00
2023-04-24T16:50:12.580Z,100595.00
2023-04-24T16:52:40.362Z,100600.00
2023-04-24T16:55:08.189Z,100601.00
2023-04-24T16:57:35.520Z,100603.00
2023-04-24T17:00:04.338Z,100608.00
2023-04-24T17:03:10.980Z,100608.00
2023-04-24T17:05:39.681Z,100597.00
2023-04-24T17:08:06.863Z,100603.00
2023-04-24T17:10:33.996Z,100604.00
2023-04-24T17:13:04.323Z,100606.00
2023-04-24T17:15:31.505Z,100604.00
2023-04-24T17:17:58.897Z,100601.00
2023-04-24T17:20:28.941Z,100605.00
2023-04-24T17:22:57.343Z,100596.00
2023-04-24T17:25:24.789Z,100611.00
2023-04-24T17:27:52.359Z,100610.00
2023-04-24T17:30:23.167Z,100622.00
2023-04-24T17:32:53.205Z,100611.00
2023-04-24T17:35:22.660Z,100619.00
2023-04-24T17:37:50.621Z,100621.00
2023-04-24T17:40:18.461Z,100618.00
2023-04-24T17:42:46.188Z,100617.00
2023-04-24T17:45:13.520Z,100616.00
2023-04-24T17:47:43.422Z,100620.00
2023-04-24T17:50:11.064Z,100620.00
2023-04-24T17:52:41.087Z,100625.00
2023-04-24T17:55:08.962Z,100624.00
2023-04-24T17:57:36.499Z,100630.00
2023-04-24T18:00:04.845Z,100627.00
2023-04-24T18:02:32.125Z,100638.00
2023-04-24T18:05:02.562Z,100631.00
2023-04-24T18:07:30.475Z,100631.00
2023-04-24T18:09:57.655Z,100633.00
2023-04-24T18:12:25.028Z,100631.00
2023-04-24T18:14:59.738Z,100628.00
2023-04-24T18:17:34.039Z,100641.00
2023-04-24T18:20:01.291Z,100645.00
2023-04-24T18:22:28.773Z,100647.00
2023-04-24T18:24:56.221Z,100657.00
2023-04-24T18:27:26.190Z,100659.00
2023-04-24T18:29:53.744Z,100653.00
2023-04-24T18:32:21.601Z,100657.00
2023-04-24T18:34:49.835Z,100663.00
2023-04-24T18:37:17.516Z,100663.00
2023-04-24T18:39:44.929Z,100667.00
2023-04-24T18:42:12.590Z,100656.00
2023-04-24T18:44:41.413Z,100654.00
2023-04-24T18:47:09.836Z,100667.00
2023-04-24T18:49:37.778Z,100662.00
2023-04-24T18:52:05.356Z,100664.00
2023-04-24T18:54:32.897Z,100666.00
2023-04-24T18:57:02.258Z,100661.00
2023-04-24T18:59:34.775Z,100661.00
2023-04-24T19:02:02.440Z,100674.00
2023-04-24T19:04:39.747Z,100676.00
2023-04-24T19:07:08.124Z,100687.00
2023-04-24T19:09:35.863Z,100682.00
2023-04-24T19:12:06.085Z,100694.00
2023-04-24T19:14:33.912Z,100694.00
2023-04-24T19:17:04.497Z,100692.00
2023-04-24T19:19:37.079Z,100705.00
2023-04-24T19:22:05.660Z,100708.00
2023-04-24T19:24:33.870Z,100690.00
2023-04-24T19:27:02.224Z,100703.00
2023-04-24T19:29:29.955Z,100714.00
2023-04-24T19:31:59.963Z,100706.00
2023-04-24T19:34:27.984Z,100706.00
2023-04-24T19:36:55.601Z,100705.00
2023-04-24T19:40:03.372Z,100719.00
2023-04-24T19:42:42.498Z,100723.00
2023-04-24T19:45:16.176Z,100722.00
2023-04-24T19:47:44.008Z,100726.00
2023-04-24T19:50:11.762Z,100725.00
2023-04-24T19:52:39.272Z,100724.00
2023-04-24T19:59:16.887Z,100740.00
2023-04-24T20:01:44.789Z,100736.00
2023-04-24T20:08:22.172Z,100749.00
2023-04-24T20:10:49.935Z,100731.00
2023-04-24T20:13:18.211Z,100726.00
2023-04-24T20:15:46.541Z,100747.00
2023-04-24T20:18:14.365Z,100745.00
2023-04-24T20:20:42.017Z,100738.00
2023-04-24T20:28:43.064Z,100744.00
2023-04-24T20:31:11.025Z,100741.00
2023-04-24T20:40:46.986Z,100755.00
2023-04-24T20:43:25.796Z,100749.00
2023-04-24T20:45:55.093Z,100733.00
2023-04-24T20:48:22.668Z,100742.00
2023-04-24T20:51:04.077Z,100753.00
2023-04-24T20:53:34.775Z,100755.00
2023-04-24T20:56:03.148Z,100744.00
2023-04-24T20:58:31.004Z,100741.00
2023-04-24T21:05:16.442Z,100747.00
2023-04-24T21:07:44.392Z,100750.00
2023-04-24T21:14:12.537Z,100741.00
2023-04-24T21:16:41.386Z,100741.00
2023-04-24T21:19:08.897Z,100733.00
2023-04-24T21:21:38.821Z,100742.00
2023-04-24T21:28:55.157Z,100735.00
2023-04-24T21:31:23.145Z,100729.00
2023-04-24T21:33:54.185Z,100732.00
2023-04-24T21:36:24.312Z,100723.00
2023-04-24T21:43:02.597Z,100732.00
2023-04-24T21:45:35.702Z,100722.00
2023-04-24T21:48:11.529Z,100724.00
2023-04-24T21:50:40.328Z,100740.00
2023-04-24T21:57:07.839Z,100742.00
2023-04-24T21:59:35.757Z,100729.00
2023-04-24T22:02:03.760Z,100728.00
2023-04-24T22:08:41.974Z,100733.00
2023-04-24T22:11:25.756Z,100734.00
2023-04-24T22:13:55.917Z,100745.00
2023-04-24T22:16:24.794Z,100745.00
2023-04-24T22:18:53.929Z,100738.00
2023-04-24T22:21:25.118Z,100742.00
2023-04-24T22:23:53.106Z,100743.00
2023-04-24T22:26:20.907Z,100736.00
2023-04-24T22:28:48.555Z,100744.00
2023-04-24T22:31:16.221Z,100729.00
2023-04-24T22:33:47.260Z,100736.00
2023-04-24T22:36:15.539Z,100740.00
2023-04-24T22:38:42.839Z,100735.00
2023-04-24T22:41:10.054Z,100732.00
2023-04-24T22:43:37.549Z,100734.00
2023-04-24T22:46:04.957Z,100720.00
2023-04-24T22:48:33.074Z,100729.00
2023-04-24T22:51:00.289Z,100723.00
2023-04-24T22:53:29.048Z,100730.00
2023-04-24T22:55:57.017Z,100738.00
2023-04-24T22:58:25.419Z,100733.00
2023-04-24T23:00:55.889Z,100721.00
2023-04-24T23:03:24.060Z,100727.00
2023-04-24T23:05:51.517Z,100725.00
2023-04-24T23:08:18.667Z,100714.00
2023-04-24T23:10:45.960Z,100733.00
2023-04-24T23:13:13.386Z,100730.00
2023-04-24T23:15:40.911Z,100741.00
2023-04-24T23:18:08.052Z,100742.00
2023-04-24T23:20:35.306Z,100729.00
2023-04-24T23:23:02.719Z,100729.00
2023-04-24T23:25:29.902Z,100742.00
2023-04-24T23:27:57.036Z,100725.00
2023-04-24T23:30:24.406Z,100731.00
2023-04-24T23:32:51.643Z,100735.00
2023-04-24T23:35:18.934Z,100745.00
2023-04-24T23:37:46.224Z,100739.00
2023-04-24T23:40:13.874Z,100737.00
2023-04-24T23:42:41.273Z,100722.00
2023-04-24T23:45:10.826Z,100735.00
2023-04-24T23:47:38.451Z,100736.00
2023-04-24T23:50:06.428Z,100730.00
2023-04-24T23:52:35.582Z,100732.00
2023-04-24T23:55:04.796Z,100732.00
2023-04-24T23:57:32.411Z,100735.00
2023-04-24T23:59:59.536Z,100739.00
